Lexington, IN

8:52 PM EDT on August 31, 2016 (GMT -0400)
Pigeon roost | | Change Station

Elev 607 ft 38.62 °N, 85.77 °W | Updated 6 minutes ago

Clear
Clear
73.8 °F
Feels Like 71 °F
N
2.7
Wind Variable Wind from West

Today
High -- | Low -- °F
--% Chance of Precip.
Yesterday
High -- | Low -- °F
Precip. -- in
Pressure 29.94 in
Visibility 10.0 miles
Clouds Clear
Heat Index 71 °F
Dew Point 72 °F
Humidity 95%
Rainfall 0.00 in
Snow Depth Not available.
7:11 AM 8:13 PM
Waning Crescent, 0% visible
METAR KLOU 312353Z 00000KT 10SM CLR 24/22 A2995 RMK AO2 RAE22 TSE04 SLP137 P0001 60200 T02440222 10317 20228 51006
Pressure 29.94 in
Visibility 10.0 miles
Clouds Clear
Heat Index 71 °F
Dew Point 72 °F
Humidity 95%
Rainfall 0.00 in
Snow Depth Not available.
7:11 AM 8:13 PM
Waning Crescent, 0% visible
METAR KLOU 312353Z 00000KT 10SM CLR 24/22 A2995 RMK AO2 RAE22 TSE04 SLP137 P0001 60200 T02440222 10317 20228 51006

10-Day Weather Forecast

Almanac

Astronomy

Aug. 31, 2016 Rise Set
Actual Time
Civil Twilight
Nautical Twilight
Astronomical Twilight
Moon
Length of Visible Light
Length of Day
Tomorrow will be .
, % of the Moon is Illuminated

Today's Extremes

State Highs State Lows

Community

WunderPhotos

Upload Photos

1,936,237 photos uploaded!

WunderBlog® & News

Nearby

Air Quality

  Air Quality AQ Index Pollutant
Not available.

Snow Depth

Station Depth Elevation

Earthquake Activity

City Distance Mag. Time & Date
Minimum magnitude displayed is 2.5.

Coastal Water Temperatures

Place Temperature

Stations

Nearby Weather Stations

Station Location Temp. Windchill Dew Point Humidity Wind Precip. Elev Updated Type
                   

Watches & Warnings

There are currently no watches in effect.